Time;durP1;ratioP1;P1;durP2;ratioP2;P2;SDS_P1;SDS_P2;PMS_P1;PMS_P2;Temp;Humidity;BMP_temperature;BMP_pressure;BME280_temperature;BME280_humidity;BME280_pressure;Samples;Min_cycle;Max_cycle;Signal;HPM_P1;HPM_P2
2023/04/06 00:02:33;;;;;;;3.90;2.90;;;;;;;-2.96;100.00;96874.97;10454360;28;20238;-74
2023/04/06 00:07:33;;;;;;;3.03;2.40;;;;;;;-2.96;100.00;96867.28;10453732;28;20320;-75
2023/04/06 00:12:34;;;;;;;3.20;2.13;;;;;;;-2.98;100.00;96858.84;10454012;28;20198;-74
2023/04/06 00:17:34;;;;;;;6.13;2.80;;;;;;;-2.97;100.00;96865.63;10452282;28;20549;-74
2023/04/06 00:22:35;;;;;;;4.67;2.67;;;;;;;-2.87;100.00;96871.16;10452605;28;20555;-74
2023/04/06 00:27:35;;;;;;;5.60;2.80;;;;;;;-2.74;100.00;96850.91;10453566;28;20274;-74
2023/04/06 00:32:36;;;;;;;7.90;3.00;;;;;;;-2.76;100.00;96850.97;10452821;28;20192;-74
2023/04/06 00:37:36;;;;;;;3.77;2.67;;;;;;;-2.68;100.00;96853.19;10434582;28;20243;-74
2023/04/06 00:42:36;;;;;;;3.93;3.03;;;;;;;-2.60;100.00;96853.69;10434580;28;20216;-74
2023/04/06 00:47:37;;;;;;;5.67;2.83;;;;;;;-2.55;100.00;96846.59;10452409;28;20183;-74
2023/04/06 00:52:37;;;;;;;6.57;2.90;;;;;;;-2.40;100.00;96845.03;10452377;28;20184;-74
2023/04/06 00:57:40;;;;;;;5.67;2.77;;;;;;;-2.35;100.00;96840.50;10433606;28;20226;-73
2023/04/06 01:02:40;;;;;;;4.27;3.17;;;;;;;-2.19;100.00;96834.63;10433621;28;20214;-74
2023/04/06 01:07:42;;;;;;;5.10;3.40;;;;;;;-2.19;100.00;96835.50;10433383;28;20219;-74
2023/04/06 01:12:47;;;;;;;7.53;3.00;;;;;;;-2.09;100.00;96832.47;10452158;28;20208;-74
2023/04/06 01:17:55;;;;;;;5.63;2.93;;;;;;;-2.07;100.00;96834.03;10433737;28;20215;-75
2023/04/06 01:22:56;;;;;;;5.07;2.87;;;;;;;-2.12;100.00;96827.47;10433230;28;20212;-74
2023/04/06 01:27:57;;;;;;;8.17;3.53;;;;;;;-2.04;100.00;96827.94;10451639;28;20215;-73
2023/04/06 01:33:07;;;;;;;5.57;3.40;;;;;;;-2.02;100.00;96824.38;10450064;28;20656;-74
2023/04/06 01:38:17;;;;;;;3.90;3.30;;;;;;;-1.88;100.00;96816.00;10433135;28;20716;-74
2023/04/06 01:43:19;;;;;;;6.57;3.83;;;;;;;-1.70;100.00;96818.53;10449498;28;20258;-74
2023/04/06 01:48:38;;;;;;;4.83;2.87;;;;;;;-1.62;100.00;96812.09;10433523;28;20200;-74
2023/04/06 01:53:50;;;;;;;5.00;3.33;;;;;;;-1.53;100.00;96795.38;10448860;28;20192;-74
2023/04/06 01:58:53;;;;;;;5.43;3.80;;;;;;;-1.45;100.00;96795.81;10433033;28;20212;-74
2023/04/06 02:03:54;;;;;;;4.90;3.10;;;;;;;-1.39;100.00;96788.69;10431145;28;20196;-74
2023/04/06 02:08:55;;;;;;;5.87;3.20;;;;;;;-1.27;100.00;96793.19;10431775;28;20275;-74
2023/04/06 02:13:56;;;;;;;10.07;3.33;;;;;;;-1.35;100.00;96788.44;10415354;28;20187;-74
2023/04/06 02:19:00;;;;;;;5.73;3.53;;;;;;;-1.54;100.00;96792.91;10431518;28;20220;-75
2023/04/06 02:24:01;;;;;;;6.27;3.37;;;;;;;-1.35;100.00;96797.91;10432755;28;20196;-74
2023/04/06 02:29:02;;;;;;;6.03;3.93;;;;;;;-1.11;100.00;96777.78;10431805;28;20196;-73
2023/04/06 02:34:02;;;;;;;8.03;3.83;;;;;;;-1.15;99.98;96781.41;10450045;28;20192;-75
2023/04/06 02:39:05;;;;;;;6.63;3.37;;;;;;;-1.00;99.56;96772.03;10431595;28;20240;-75
2023/04/06 02:44:08;;;;;;;6.27;3.57;;;;;;;-0.98;98.71;96770.22;10436813;28;20295;-75
2023/04/06 02:49:13;;;;;;;7.17;3.80;;;;;;;-1.02;98.68;96779.84;10437792;28;20691;-75
2023/04/06 02:54:14;;;;;;;6.53;3.70;;;;;;;-1.12;99.72;96783.81;10439145;28;20191;-75
2023/04/06 02:59:15;;;;;;;7.07;4.10;;;;;;;-1.12;100.00;96789.81;10456632;28;20285;-75
2023/04/06 03:04:25;;;;;;;5.40;3.83;;;;;;;-1.11;100.00;96790.63;10437230;28;20254;-74
2023/04/06 03:09:26;;;;;;;7.30;3.83;;;;;;;-1.16;100.00;96790.88;10434685;28;20188;-74
2023/04/06 03:14:27;;;;;;;10.60;4.93;;;;;;;-1.09;99.54;96783.66;10435126;28;20253;-74
2023/04/06 03:19:30;;;;;;;10.50;6.93;;;;;;;-1.41;100.00;96793.06;10417839;28;20588;-74
2023/04/06 03:24:33;;;;;;;14.33;6.87;;;;;;;-1.47;100.00;96801.94;10452558;28;20682;-74
2023/04/06 03:29:34;;;;;;;8.83;5.40;;;;;;;-1.58;100.00;96802.47;10452002;28;20322;-75
2023/04/06 03:34:34;;;;;;;5.43;4.23;;;;;;;-1.62;100.00;96811.28;10433513;28;20200;-75
2023/04/06 03:39:35;;;;;;;10.33;5.57;;;;;;;-1.77;100.00;96812.06;10433496;28;20708;-74
2023/04/06 03:44:37;;;;;;;8.00;5.90;;;;;;;-1.64;100.00;96811.34;10433521;28;20199;-74
2023/04/06 03:49:38;;;;;;;9.50;4.77;;;;;;;-1.60;100.00;96811.19;10416272;28;20191;-74
2023/04/06 03:54:41;;;;;;;8.40;4.97;;;;;;;-1.67;100.00;96818.38;10431827;28;20195;-74
2023/04/06 03:59:44;;;;;;;11.60;5.03;;;;;;;-1.66;100.00;96820.03;10433409;28;20212;-74
2023/04/06 04:04:45;;;;;;;6.87;4.47;;;;;;;-1.75;100.00;96826.47;10453806;28;20633;-75
2023/04/06 04:09:45;;;;;;;6.37;4.47;;;;;;;-1.77;100.00;96837.75;10436217;28;20195;-74
2023/04/06 04:14:45;;;;;;;22.03;5.17;;;;;;;-1.79;100.00;96832.69;10453959;28;20714;-75
2023/04/06 04:19:46;;;;;;;6.80;4.63;;;;;;;-1.92;100.00;96845.28;10453356;28;20706;-74
2023/04/06 04:24:48;;;;;;;7.90;4.70;;;;;;;-1.90;100.00;96832.38;10435797;28;20195;-74
2023/04/06 04:29:49;;;;;;;11.37;5.30;;;;;;;-2.23;100.00;96836.53;10435186;28;20192;-74
2023/04/06 04:34:50;;;;;;;8.50;5.07;;;;;;;-2.18;100.00;96839.69;10435300;28;20192;-74
2023/04/06 04:40:05;;;;;;;8.43;4.93;;;;;;;-2.05;100.00;96839.09;10434359;28;20373;-74
2023/04/06 04:45:15;;;;;;;8.80;4.40;;;;;;;-2.04;100.00;96835.63;10434643;28;20322;-74
2023/04/06 04:50:16;;;;;;;8.10;4.70;;;;;;;-2.02;100.00;96832.09;10422432;28;20187;-75
2023/04/06 04:55:19;;;;;;;9.53;5.20;;;;;;;-2.08;100.00;96841.81;10410513;28;20219;-74
2023/04/06 05:00:23;;;;;;;10.47;4.90;;;;;;;-2.18;100.00;96841.44;10406747;28;20689;-74
2023/04/06 05:05:25;;;;;;;10.80;4.87;;;;;;;-2.12;100.00;96853.16;10416693;28;20283;-74
2023/04/06 05:10:26;;;;;;;10.33;4.70;;;;;;;-2.11;100.00;96849.66;10430187;28;20180;-74
2023/04/06 05:15:31;;;;;;;7.30;5.20;;;;;;;-2.17;100.00;96850.81;10426947;28;20227;-74
2023/04/06 05:20:39;;;;;;;8.50;5.20;;;;;;;-2.05;100.00;96854.50;10399081;28;20211;-75
2023/04/06 05:25:39;;;;;;;9.57;4.90;;;;;;;-2.06;100.00;96860.56;10417195;28;20207;-75
2023/04/06 05:30:49;;;;;;;9.73;5.27;;;;;;;-2.13;100.00;96866.88;10386206;28;20290;-75
2023/04/06 05:35:50;;;;;;;13.73;5.73;;;;;;;-1.58;100.00;96871.84;10412105;28;20183;-75
2023/04/06 05:40:51;;;;;;;8.97;5.20;;;;;;;-0.79;100.00;96860.88;10408448;28;20230;-74
2023/04/06 05:45:56;;;;;;;11.03;5.50;;;;;;;-0.22;97.61;96828.63;10408673;28;20211;-74
2023/04/06 05:50:56;;;;;;;9.20;5.77;;;;;;;0.09;95.04;96819.13;10429678;28;20183;-74
2023/04/06 05:56:04;;;;;;;9.70;5.87;;;;;;;0.20;91.40;96803.06;10432946;28;20314;-74
2023/04/06 06:01:05;;;;;;;9.07;5.20;;;;;;;1.17;87.69;96772.22;10435239;28;20345;-74
2023/04/06 06:06:13;;;;;;;9.27;5.30;;;;;;;1.58;84.30;96753.25;10412529;28;20181;-74
2023/04/06 06:11:25;;;;;;;8.03;5.20;;;;;;;1.92;82.80;96750.22;10417230;28;20176;-74
2023/04/06 06:16:26;;;;;;;10.07;4.23;;;;;;;2.10;80.18;96730.91;10421681;28;20560;-74
2023/04/06 06:21:26;;;;;;;6.87;4.63;;;;;;;2.24;78.73;96717.06;10399305;28;20770;-74
2023/04/06 06:26:27;;;;;;;8.17;4.40;;;;;;;2.57;78.05;96720.00;10399135;28;20279;-75
2023/04/06 06:31:27;;;;;;;6.27;4.47;;;;;;;2.65;75.48;96684.09;10399064;28;20192;-75
2023/04/06 06:36:30;;;;;;;11.33;4.80;;;;;;;3.45;72.50;96657.63;10399059;28;20689;-75
2023/04/06 06:41:31;;;;;;;5.97;4.20;;;;;;;4.34;70.66;96659.63;10397821;28;20220;-74
2023/04/06 06:46:32;;;;;;;8.50;4.40;;;;;;;4.64;68.16;96640.84;10398747;28;20184;-75
2023/04/06 06:51:33;;;;;;;5.67;3.70;;;;;;;5.04;67.00;96629.84;10397751;28;20248;-74
2023/04/06 06:56:37;;;;;;;9.60;3.73;;;;;;;5.52;62.44;96571.41;10397802;28;20192;-75
2023/04/06 07:01:38;;;;;;;6.90;4.00;;;;;;;5.53;59.91;96536.69;10437352;28;20257;-75
2023/04/06 07:06:38;;;;;;;4.60;3.53;;;;;;;6.05;57.97;96519.25;10453297;28;20215;-75
2023/04/06 07:11:40;;;;;;;7.27;4.20;;;;;;;4.92;56.76;96475.91;10405629;28;20234;-75
2023/04/06 07:16:41;;;;;;;4.53;3.20;;;;;;;5.72;52.24;96413.78;10414109;28;20218;-75
2023/04/06 07:21:41;;;;;;;6.50;3.73;;;;;;;7.08;49.55;96404.28;10414482;28;20208;-75
2023/04/06 07:26:42;;;;;;;3.93;3.00;;;;;;;7.18;45.47;96339.13;10426870;28;20278;-75
2023/04/06 07:31:42;;;;;;;5.33;3.47;;;;;;;6.85;46.42;96362.97;10436232;28;20184;-75
2023/04/06 07:36:43;;;;;;;5.20;3.20;;;;;;;7.06;44.27;96336.72;10435050;28;20183;-75
2023/04/06 07:41:43;;;;;;;4.37;3.40;;;;;;;7.78;42.13;96313.38;10434054;28;20314;-75
2023/04/06 07:46:45;;;;;;;5.00;3.33;;;;;;;7.41;41.87;96308.28;10452726;28;20188;-74
2023/04/06 07:51:46;;;;;;;5.63;3.30;;;;;;;6.53;46.35;96394.56;10450896;28;20754;-76
2023/04/06 07:56:46;;;;;;;6.50;3.50;;;;;;;6.16;49.75;96481.91;10434933;28;20195;-76
2023/04/06 08:01:46;;;;;;;6.43;3.47;;;;;;;6.03;50.19;96482.16;10453065;28;20288;-75
2023/04/06 08:06:47;;;;;;;4.00;3.50;;;;;;;6.29;48.91;96473.81;10434467;28;20191;-75
2023/04/06 08:11:48;;;;;;;6.53;3.47;;;;;;;6.35;47.57;96430.84;10434029;28;20307;-75
2023/04/06 08:16:48;;;;;;;8.87;3.20;;;;;;;6.16;50.57;96512.31;10433626;28;20189;-75
2023/04/06 08:21:49;;;;;;;4.10;2.80;;;;;;;5.64;55.20;96609.34;10403946;28;20220;-76
2023/04/06 08:26:51;;;;;;;5.50;3.07;;;;;;;6.12;53.83;96581.13;10393084;28;20185;-76
2023/04/06 08:31:51;;;;;;;4.47;3.33;;;;;;;7.47;48.76;96503.16;10410630;28;20189;-76
2023/04/06 08:36:52;;;;;;;5.33;3.60;;;;;;;8.30;42.85;96380.53;10410468;28;20228;-76
2023/04/06 08:42:42;;;;;;;6.73;3.67;;;;;;;8.85;39.91;96319.41;10408812;28;20228;-77
2023/04/06 08:54:17;;;;;;;7.07;3.33;;;;;;;11.15;36.54;96317.94;10450525;28;20208;-76
2023/04/06 08:59:18;;;;;;;7.20;3.17;;;;;;;11.99;36.57;96362.84;10449033;28;20267;-76
2023/04/06 09:04:18;;;;;;;5.10;3.50;;;;;;;12.33;36.38;96377.38;10432028;28;20200;-76
2023/04/06 09:09:19;;;;;;;4.40;3.80;;;;;;;12.72;35.59;96357.97;10432207;28;20198;-76
2023/04/06 09:14:40;;;;;;;5.00;3.63;;;;;;;12.92;33.92;96321.47;10450404;28;20203;-76
2023/04/06 09:19:47;;;;;;;4.85;3.30;;;;;;;11.65;36.78;96373.66;10451506;28;20762;-75
2023/04/06 09:24:52;;;;;;;4.97;3.60;;;;;;;11.45;35.51;96339.97;10449650;28;20192;-76
2023/04/06 09:30:06;;;;;;;5.90;3.90;;;;;;;9.73;39.27;96377.59;10465795;28;20679;-75
2023/04/06 09:35:08;;;;;;;6.00;3.92;;;;;;;9.76;39.96;96419.13;10449106;28;20187;-76
2023/04/06 09:40:09;;;;;;;7.45;4.03;;;;;;;9.21;39.54;96387.19;10449383;28;20326;-76
2023/04/06 09:45:10;;;;;;;7.43;4.28;;;;;;;9.07;38.19;96351.19;10449564;28;20192;-76
2023/04/06 09:50:11;;;;;;;4.28;3.60;;;;;;;9.17;40.14;96421.63;10448503;28;20222;-74
2023/04/06 09:55:35;;;;;;;4.53;3.80;;;;;;;8.74;40.24;96393.63;10456278;28;20192;-75
2023/04/06 10:00:51;;;;;;;6.13;4.13;;;;;;;8.43;43.89;96476.72;10439889;28;20667;-75
2023/04/06 10:06:13;;;;;;;6.13;3.80;;;;;;;9.11;42.50;96470.09;10439314;28;20188;-76
2023/04/06 10:11:23;;;;;;;6.57;3.97;;;;;;;8.48;43.57;96478.91;10457817;28;20215;-76
2023/04/06 10:16:27;;;;;;;8.47;4.07;;;;;;;8.75;43.02;96465.75;10423169;28;20551;-76
2023/04/06 10:21:58;;;;;;;6.07;3.60;;;;;;;10.27;40.05;96446.06;10457190;28;20227;-77
2023/04/06 10:27:45;;;;;;;6.93;4.43;;;;;;;10.25;40.54;96450.66;10436251;28;20298;-76
2023/04/06 10:32:58;;;;;;;4.80;3.80;;;;;;;10.76;38.23;96386.88;10293780;28;20190;-75
2023/04/06 10:38:21;;;;;;;4.85;3.70;;;;;;;11.40;39.49;96455.88;10288339;28;20269;-77
2023/04/06 10:43:23;;;;;;;7.50;4.18;;;;;;;8.93;39.98;96373.50;10390955;28;20227;-76
2023/04/06 10:48:23;;;;;;;4.43;3.80;;;;;;;9.10;38.96;96353.50;10455105;28;20259;-77
2023/04/06 10:53:25;;;;;;;4.68;4.20;;;;;;;9.84;39.13;96395.59;10437345;28;20219;-77
2023/04/06 10:58:27;;;;;;;6.10;4.00;;;;;;;9.06;38.53;96328.66;10455504;28;20188;-76
2023/04/06 11:03:28;;;;;;;8.02;4.07;;;;;;;9.87;37.21;96332.47;10436562;28;20202;-77
2023/04/06 11:08:30;;;;;;;5.50;4.43;;;;;;;9.14;40.90;96404.44;10454194;28;20226;-77
2023/04/06 11:13:37;;;;;;;6.82;4.20;;;;;;;12.42;36.91;96415.72;10467474;28;20199;-76
2023/04/06 11:18:38;;;;;;;5.72;4.05;;;;;;;11.74;36.94;96381.28;10453433;28;20565;-77
2023/04/06 11:23:38;;;;;;;19.23;11.77;;;;;;;12.37;36.94;96394.41;10452226;28;20190;-78
2023/04/06 11:28:41;;;;;;;8.15;4.43;;;;;;;10.95;36.28;96296.56;10454128;28;20227;-77
2023/04/06 11:33:41;;;;;;;4.30;3.83;;;;;;;12.53;38.73;96453.09;10435407;28;20252;-78
2023/04/06 11:38:42;;;;;;;6.47;4.35;;;;;;;13.45;37.19;96431.91;10453308;28;20288;-77
2023/04/06 11:43:47;;;;;;;6.65;3.88;;;;;;;13.54;37.09;96416.84;10453681;28;20243;-77
2023/04/06 11:48:47;;;;;;;6.07;4.20;;;;;;;13.44;34.80;96325.00;10452347;28;20232;-77
2023/04/06 11:53:48;;;;;;;5.53;4.18;;;;;;;11.60;37.22;96337.44;10452882;28;20553;-76
2023/04/06 11:58:48;;;;;;;6.50;4.70;;;;;;;11.20;38.50;96373.34;10452253;28;20891;-77
2023/04/06 12:03:49;;;;;;;6.97;4.40;;;;;;;10.78;38.80;96367.38;10453137;28;20618;-78
2023/04/06 12:08:50;;;;;;;4.72;4.03;;;;;;;10.74;39.16;96373.13;10453062;28;20583;-77
2023/04/06 12:13:50;;;;;;;6.00;4.28;;;;;;;12.17;35.43;96302.13;10436952;28;20195;-77
2023/04/06 12:18:51;;;;;;;5.68;3.85;;;;;;;12.39;34.39;96289.16;10453061;28;20188;-76
2023/04/06 12:23:51;;;;;;;5.65;4.07;;;;;;;12.10;35.54;96302.03;10452300;28;20186;-76
2023/04/06 12:28:52;;;;;;;9.32;4.75;;;;;;;13.83;33.03;96300.16;10449833;28;20306;-76
2023/04/06 12:33:52;;;;;;;6.72;4.30;;;;;;;13.91;34.67;96331.63;10451752;28;20188;-76
2023/04/06 12:38:52;;;;;;;3.80;3.40;;;;;;;14.87;32.44;96274.22;10432643;28;20234;-76
2023/04/06 12:43:53;;;;;;;5.05;4.18;;;;;;;13.09;31.41;96174.03;10450558;28;20214;-77
2023/04/06 12:48:54;;;;;;;5.63;4.05;;;;;;;14.04;32.99;96259.00;10451132;28;20212;-77
2023/04/06 12:53:55;;;;;;;4.32;3.47;;;;;;;13.92;32.29;96235.03;10416611;28;20188;-76
2023/04/06 12:58:55;;;;;;;8.85;3.72;;;;;;;14.92;31.58;96246.25;10449947;28;20192;-77
2023/04/06 13:03:57;;;;;;;4.40;3.63;;;;;;;16.71;31.25;96301.50;10450321;28;20199;-76
2023/04/06 13:08:57;;;;;;;4.32;3.78;;;;;;;18.07;28.89;96260.06;10431685;28;20656;-76
2023/04/06 13:13:58;;;;;;;6.40;3.15;;;;;;;18.03;28.71;96253.56;10449073;28;20206;-76
2023/04/06 13:18:58;;;;;;;4.60;2.97;;;;;;;18.43;26.92;96194.88;10431872;28;20188;-77
2023/04/06 13:23:59;;;;;;;3.92;3.15;;;;;;;17.01;29.32;96219.03;10449582;28;20207;-76
2023/04/06 13:29:01;;;;;;;3.92;3.10;;;;;;;15.63;30.96;96229.25;10448357;28;20216;-76
2023/04/06 13:34:01;;;;;;;3.83;3.00;;;;;;;14.96;31.33;96220.31;10449626;28;20203;-76
2023/04/06 13:39:02;;;;;;;5.55;4.07;;;;;;;10.49;35.14;96176.69;10430669;28;20987;-76
2023/04/06 13:44:02;;;;;;;4.68;3.50;;;;;;;13.49;34.63;96283.19;10448742;28;20737;-76
2023/04/06 13:49:02;;;;;;;7.10;3.72;;;;;;;14.16;33.83;96269.84;10449205;28;20231;-76
2023/04/06 13:54:03;;;;;;;5.97;3.75;;;;;;;15.22;32.69;96267.13;10448801;28;20195;-77
2023/04/06 13:59:03;;;;;;;5.93;4.00;;;;;;;15.21;32.58;96256.75;10448275;28;20217;-77
2023/04/06 14:04:03;;;;;;;6.93;4.05;;;;;;;16.12;32.12;96284.63;10447401;28;20294;-77
2023/04/06 14:09:04;;;;;;;5.03;3.83;;;;;;;15.41;31.65;96236.50;10448008;28;20216;-77
2023/04/06 14:14:04;;;;;;;5.15;3.67;;;;;;;16.70;30.62;96246.97;10448439;28;20307;-77
2023/04/06 14:19:05;;;;;;;4.72;3.83;;;;;;;17.19;29.72;96228.94;10448395;28;20211;-77
2023/04/06 14:24:07;;;;;;;5.53;3.70;;;;;;;18.45;27.32;96194.66;10448710;28;20246;-77
2023/04/06 14:29:08;;;;;;;4.20;3.40;;;;;;;19.05;25.87;96149.72;10447537;28;20807;-77
2023/04/06 14:34:08;;;;;;;3.38;2.92;;;;;;;19.60;26.22;96201.09;10430744;28;20223;-76
2023/04/06 14:39:09;;;;;;;6.03;3.38;;;;;;;20.57;25.03;96185.88;10450128;28;20320;-76
2023/04/06 14:44:11;;;;;;;7.65;3.70;;;;;;;21.55;24.11;96176.13;10456549;28;20224;-76
2023/04/06 14:49:12;;;;;;;3.13;2.63;;;;;;;23.18;22.63;96179.88;10438193;28;20587;-76
2023/04/06 14:54:12;;;;;;;4.22;3.30;;;;;;;23.29;22.11;96163.69;10436884;28;20207;-76
2023/04/06 14:59:13;;;;;;;4.15;3.30;;;;;;;23.33;21.53;96146.09;10459987;28;20278;-76
2023/04/06 15:04:13;;;;;;;4.90;3.70;;;;;;;20.35;24.08;96109.28;10471442;28;20187;-77
2023/04/06 15:09:14;;;;;;;4.68;3.10;;;;;;;20.98;24.73;96184.91;10465234;28;20615;-78
2023/04/06 15:14:15;;;;;;;6.00;3.67;;;;;;;19.34;25.48;96149.13;10491259;28;20255;-77
2023/04/06 15:19:18;;;;;;;4.82;3.20;;;;;;;18.80;26.76;96178.97;10486234;28;20248;-75
2023/04/06 15:24:47;;;;;;;5.63;4.43;;;;;;;19.30;26.68;96175.34;10491112;28;20253;-76
2023/04/06 15:29:47;;;;;;;7.22;4.10;;;;;;;17.33;27.36;96131.75;10477567;28;20259;-75
2023/04/06 15:34:47;;;;;;;4.45;3.80;;;;;;;20.14;25.99;96227.72;10495246;28;20289;-74
2023/04/06 15:39:48;;;;;;;4.78;3.55;;;;;;;21.31;23.26;96158.59;10460425;28;20330;-75
2023/04/06 15:44:48;;;;;;;6.00;4.13;;;;;;;19.12;26.31;96167.41;10438198;28;20220;-75
2023/04/06 15:49:49;;;;;;;8.60;4.05;;;;;;;18.04;26.51;96148.34;10452542;28;20228;-74
2023/04/06 15:54:49;;;;;;;4.97;4.25;;;;;;;16.64;27.90;96140.16;10452837;28;20279;-75
2023/04/06 15:59:50;;;;;;;4.63;3.83;;;;;;;17.96;27.66;96200.59;10451786;28;20573;-75
2023/04/06 16:04:57;;;;;;;5.85;4.28;;;;;;;16.20;28.89;96160.19;10452448;28;20709;-76
2023/04/06 16:09:57;;;;;;;7.38;3.88;;;;;;;16.23;29.14;96196.78;10453067;28;20216;-77
2023/04/06 16:14:58;;;;;;;5.00;3.72;;;;;;;15.55;30.62;96228.63;10454133;28;20588;-77
2023/04/06 16:19:58;;;;;;;5.15;3.97;;;;;;;17.15;28.15;96196.81;10435865;28;20192;-77
2023/04/06 16:24:59;;;;;;;4.97;4.00;;;;;;;16.40;28.41;96187.44;10435686;28;20207;-74
2023/04/06 16:29:59;;;;;;;8.13;4.88;;;;;;;16.20;28.68;96186.63;10453305;28;20358;-77
2023/04/06 16:35:01;;;;;;;5.22;4.15;;;;;;;16.34;29.74;96219.97;10452946;28;20304;-75
2023/04/06 16:40:02;;;;;;;5.43;4.28;;;;;;;14.15;31.53;96200.56;10452579;28;20246;-77
2023/04/06 16:45:03;;;;;;;4.50;4.10;;;;;;;10.86;37.01;96256.50;10453188;28;20197;-77
2023/04/06 16:50:04;;;;;;;7.00;4.07;;;;;;;10.51;38.14;96284.75;10434537;28;20212;-76
2023/04/06 16:55:05;;;;;;;6.43;4.60;;;;;;;10.30;38.89;96335.78;10451832;28;20682;-76
2023/04/06 17:00:07;;;;;;;10.73;4.40;;;;;;;9.01;42.29;96375.34;10450445;28;20190;-76
2023/04/06 17:05:08;;;;;;;4.50;4.00;;;;;;;8.13;43.39;96386.56;10451152;28;20195;-76
2023/04/06 17:10:09;;;;;;;8.47;4.30;;;;;;;7.74;43.24;96390.25;10450778;28;20230;-77
2023/04/06 17:15:09;;;;;;;6.23;4.03;;;;;;;7.41;46.00;96455.06;10449476;28;20187;-76
2023/04/06 17:20:10;;;;;;;7.40;5.00;;;;;;;7.27;45.08;96416.41;10450461;28;20197;-76
2023/04/06 17:25:10;;;;;;;7.33;4.10;;;;;;;6.96;45.80;96437.50;10451253;28;20195;-75
2023/04/06 17:30:12;;;;;;;8.97;5.93;;;;;;;6.69;46.78;96475.50;10450640;28;20828;-75
2023/04/06 17:35:12;;;;;;;9.87;5.20;;;;;;;6.15;50.52;96540.06;10448225;28;20299;-75
2023/04/06 17:40:12;;;;;;;11.37;5.33;;;;;;;5.16;53.88;96589.06;10448567;28;20744;-75
2023/04/06 17:45:13;;;;;;;9.93;5.87;;;;;;;4.17;56.59;96627.22;10449117;28;20234;-75
2023/04/06 17:50:13;;;;;;;24.80;13.73;;;;;;;4.27;56.95;96618.59;10450108;28;20216;-74
2023/04/06 17:55:14;;;;;;;13.73;6.57;;;;;;;3.10;60.24;96652.47;10432958;28;20198;-75
2023/04/06 18:00:18;;;;;;;36.87;19.27;;;;;;;2.72;64.25;96700.00;10450298;28;20188;-75
2023/04/06 18:05:19;;;;;;;16.53;11.50;;;;;;;2.72;63.74;96680.13;10433120;28;20241;-76
2023/04/06 18:10:20;;;;;;;17.97;8.50;;;;;;;2.42;65.89;96696.03;10432719;28;20223;-76
2023/04/06 18:15:21;;;;;;;10.97;6.60;;;;;;;2.11;67.43;96700.72;10454688;28;20723;-75
2023/04/06 18:20:21;;;;;;;14.23;9.30;;;;;;;1.74;68.90;96708.34;10457469;28;20241;-75
2023/04/06 18:25:22;;;;;;;27.97;10.70;;;;;;;1.63;70.75;96721.16;10456791;28;20196;-76
2023/04/06 18:30:22;;;;;;;11.63;7.43;;;;;;;1.35;71.84;96718.63;10456644;28;20219;-75
2023/04/06 18:35:23;;;;;;;10.80;6.50;;;;;;;1.29;71.89;96708.69;10457018;28;20265;-75
2023/04/06 18:40:33;;;;;;;7.17;6.10;;;;;;;1.08;72.85;96712.66;10456024;28;20573;-75
2023/04/06 18:45:37;;;;;;;10.47;5.83;;;;;;;0.86;74.08;96725.16;10455606;28;20329;-75
2023/04/06 18:50:37;;;;;;;9.07;5.70;;;;;;;0.64;74.96;96728.22;10455921;28;20274;-75
2023/04/06 18:55:38;;;;;;;9.27;5.03;;;;;;;0.48;75.67;96735.25;10437430;28;20642;-75
2023/04/06 19:00:40;;;;;;;9.73;5.00;;;;;;;0.35;76.26;96730.84;10452883;28;20558;-75
2023/04/06 19:05:40;;;;;;;32.40;13.97;;;;;;;0.19;76.53;96732.69;10450331;28;20191;-75
2023/04/06 19:10:41;;;;;;;24.97;10.30;;;;;;;0.07;76.99;96730.84;10455096;28;20283;-75
2023/04/06 19:15:41;;;;;;;22.73;8.47;;;;;;;-0.10;77.65;96732.66;10455386;28;20198;-75
2023/04/06 19:20:41;;;;;;;4.57;3.73;;;;;;;-0.15;77.94;96733.84;10455549;28;20180;-75
2023/04/06 19:25:42;;;;;;;5.93;4.53;;;;;;;-0.22;78.11;96723.88;10454805;28;20275;-76
2023/04/06 19:30:42;;;;;;;8.13;4.83;;;;;;;-0.42;78.72;96727.63;10454852;28;20224;-75
2023/04/06 19:35:43;;;;;;;6.90;4.90;;;;;;;-0.52;79.09;96730.81;10454787;28;20199;-75
2023/04/06 19:40:43;;;;;;;9.13;5.30;;;;;;;-0.66;80.09;96723.88;10453195;28;20310;-75
2023/04/06 19:45:43;;;;;;;6.03;4.90;;;;;;;-0.76;81.01;96742.41;10454379;28;20191;-74
2023/04/06 19:50:44;;;;;;;7.73;4.27;;;;;;;-0.94;81.60;96733.97;10453257;28;20215;-75
2023/04/06 19:55:45;;;;;;;8.70;4.80;;;;;;;-1.00;82.10;96730.91;10454330;28;20268;-75
2023/04/06 20:00:45;;;;;;;9.70;4.93;;;;;;;-1.10;82.85;96731.41;10453273;28;20254;-75
2023/04/06 20:05:46;;;;;;;6.97;3.63;;;;;;;-1.11;83.10;96721.22;10453671;28;20274;-75
2023/04/06 20:10:46;;;;;;;8.87;5.53;;;;;;;-1.18;82.67;96727.59;10453106;28;20231;-74
2023/04/06 20:15:47;;;;;;;15.77;7.27;;;;;;;-1.28;83.68;96729.84;10453043;28;20192;-74
2023/04/06 20:20:48;;;;;;;14.97;7.87;;;;;;;-1.30;84.09;96734.25;10452867;28;20227;-74
2023/04/06 20:25:49;;;;;;;10.27;5.40;;;;;;;-1.38;84.30;96737.22;10435036;28;20249;-75
2023/04/06 20:30:50;;;;;;;8.33;5.23;;;;;;;-1.37;84.46;96740.63;10452310;28;20668;-75
2023/04/06 20:35:58;;;;;;;7.60;5.00;;;;;;;-1.44;84.29;96732.41;10451935;28;20234;-74
2023/04/06 20:40:58;;;;;;;6.03;4.10;;;;;;;-1.44;84.79;96738.38;10433345;28;20236;-75
2023/04/06 20:46:00;;;;;;;4.90;3.07;;;;;;;-1.50;85.43;96733.56;10452523;28;20632;-75
2023/04/06 20:51:02;;;;;;;7.17;4.10;;;;;;;-1.49;85.18;96726.69;10451817;28;20201;-74
2023/04/06 20:56:02;;;;;;;10.03;5.63;;;;;;;-1.59;86.02;96733.22;10451471;28;20214;-74
2023/04/06 21:01:03;;;;;;;7.60;4.60;;;;;;;-1.62;86.34;96731.66;10451747;28;20449;-75
2023/04/06 21:26:01;;;;;;;6.60;4.60;;;;;;;-1.83;88.42;96731.84;10451272;28;20188;-75
2023/04/06 21:31:05;;;;;;;5.10;4.30;;;;;;;-1.83;88.15;96726.72;10417904;28;20211;-75
2023/04/06 21:36:06;;;;;;;6.57;3.77;;;;;;;-1.85;88.28;96733.69;10450699;28;20191;-74
2023/04/06 21:41:07;;;;;;;6.40;4.60;;;;;;;-1.90;88.93;96729.69;10449668;28;20750;-74
2023/04/06 21:46:07;;;;;;;7.37;4.13;;;;;;;-1.88;88.74;96715.88;10450869;28;20254;-74
2023/04/06 21:51:07;;;;;;;6.10;4.13;;;;;;;-1.90;88.67;96709.13;10450411;28;20203;-74
2023/04/06 21:56:09;;;;;;;10.73;6.17;;;;;;;-1.88;89.02;96718.44;10449562;28;20934;-74
2023/04/06 22:01:10;;;;;;;10.50;5.53;;;;;;;-1.93;89.17;96717.00;10448890;28;20265;-74
2023/04/06 22:06:10;;;;;;;8.67;4.23;;;;;;;-1.89;89.15;96705.69;10449666;28;20212;-73
2023/04/06 22:11:10;;;;;;;6.07;4.13;;;;;;;-1.93;88.95;96702.44;10449103;28;20672;-74
2023/04/06 22:16:11;;;;;;;9.00;4.60;;;;;;;-1.95;89.17;96696.53;10450605;28;20188;-74
2023/04/06 22:21:11;;;;;;;8.40;4.70;;;;;;;-1.97;88.89;96703.50;10450148;28;20346;-74
2023/04/06 22:26:12;;;;;;;6.47;3.73;;;;;;;-1.94;89.11;96693.06;10449758;28;20196;-74
2023/04/06 22:31:12;;;;;;;5.83;3.70;;;;;;;-1.91;88.55;96698.06;10450292;28;20274;-74
2023/04/06 22:36:13;;;;;;;6.43;4.03;;;;;;;-1.98;88.64;96683.88;10449731;28;20196;-74
2023/04/06 22:41:18;;;;;;;5.67;4.27;;;;;;;-1.99;88.91;96684.78;10449697;28;20231;-75
2023/04/06 22:46:18;;;;;;;7.63;3.83;;;;;;;-1.95;88.92;96693.97;10449761;28;20192;-74
2023/04/06 22:51:18;;;;;;;4.13;2.57;;;;;;;-1.97;88.93;96677.84;10449763;28;20184;-74
2023/04/06 22:56:20;;;;;;;4.37;3.07;;;;;;;-1.95;88.83;96675.19;10449478;28;20250;-74
2023/04/06 23:01:20;;;;;;;7.33;3.93;;;;;;;-1.99;88.63;96677.06;10454796;28;20718;-74
2023/04/06 23:06:21;;;;;;;5.83;3.43;;;;;;;-1.91;88.71;96677.50;10456876;28;20210;-74
2023/04/06 23:11:21;;;;;;;6.90;3.97;;;;;;;-1.97;88.95;96675.28;10457072;28;20196;-74
2023/04/06 23:16:22;;;;;;;3.83;2.87;;;;;;;-1.86;88.61;96667.00;10456529;28;20250;-74
2023/04/06 23:21:22;;;;;;;4.37;3.27;;;;;;;-1.85;88.08;96666.91;10454794;28;20215;-75
2023/04/06 23:26:23;;;;;;;5.30;3.53;;;;;;;-1.87;88.62;96666.19;10456033;28;20187;-75
2023/04/06 23:31:23;;;;;;;6.93;4.17;;;;;;;-1.91;88.59;96661.28;10454690;28;20275;-74
2023/04/06 23:36:24;;;;;;;5.50;3.80;;;;;;;-1.79;87.84;96652.94;10437425;28;20192;-74
2023/04/06 23:41:25;;;;;;;3.37;2.90;;;;;;;-1.78;87.81;96640.91;10455011;28;20228;-74
2023/04/06 23:46:26;;;;;;;4.57;2.80;;;;;;;-1.77;87.88;96634.88;10454361;28;20188;-75
2023/04/06 23:51:26;;;;;;;4.00;2.83;;;;;;;-1.72;87.61;96638.03;10455151;28;20188;-75